Time;durP1;ratioP1;P1;durP2;ratioP2;P2;SDS_P1;SDS_P2;PMS_P1;PMS_P2;Temp;Humidity;BMP_temperature;BMP_pressure;BME280_temperature;BME280_humidity;BME280_pressure;Samples;Min_cycle;Max_cycle;Signal;HPM_P1;HPM_P2
2023/01/01 00:00:05;;;;;;;24.25;12.38;;;;;;;14.08;72.52;100599.81;1270098;23;20268;-87
2023/01/01 00:00:40;;;;;;;20.42;11.07;;;;;;;14.11;71.87;100588.63;1265548;23;20262;-87
2023/01/01 00:01:14;;;;;;;24.33;9.10;;;;;;;14.14;71.55;100590.81;1265122;23;20300;-87
2023/01/01 00:01:46;;;;;;;12.55;8.93;;;;;;;14.09;72.29;100600.63;1261096;23;20671;-87
2023/01/01 00:02:18;;;;;;;24.50;11.90;;;;;;;14.13;72.08;100601.75;1258805;23;20282;-87
2023/01/01 00:02:49;;;;;;;18.60;9.98;;;;;;;14.10;72.38;100602.25;1259279;23;20274;-87
2023/01/01 00:03:21;;;;;;;14.52;9.48;;;;;;;14.12;72.59;100597.47;1264990;23;20277;-87
2023/01/01 00:03:54;;;;;;;17.08;9.98;;;;;;;14.02;73.46;100597.31;1259206;23;20278;-87
2023/01/01 00:04:26;;;;;;;16.05;9.48;;;;;;;13.98;73.34;100598.88;1265276;23;20684;-87
2023/01/01 00:04:58;;;;;;;18.70;10.48;;;;;;;14.08;72.64;100594.47;1259024;23;20267;-87
2023/01/01 00:05:29;;;;;;;18.88;9.65;;;;;;;14.09;72.17;100589.91;1265028;23;20360;-87
2023/01/01 00:06:05;;;;;;;17.23;9.73;;;;;;;14.07;72.75;100605.44;1258972;23;20310;-87
2023/01/01 00:06:37;;;;;;;18.38;10.45;;;;;;;14.09;72.96;100600.63;1259331;23;20265;-87
2023/01/01 00:07:08;;;;;;;12.70;8.85;;;;;;;14.09;73.00;100596.09;1265151;23;20266;-87
2023/01/01 00:07:40;;;;;;;13.05;9.40;;;;;;;14.11;72.95;100606.56;1259303;23;20793;-87
2023/01/01 00:08:12;;;;;;;16.73;9.57;;;;;;;14.15;72.30;100583.56;1264938;23;20578;-87
2023/01/01 00:08:44;;;;;;;14.57;9.05;;;;;;;14.17;72.14;100593.00;1260800;23;20576;-86
2023/01/01 00:11:00;;;;;;;30.38;10.73;;;;;;;14.03;74.11;100602.44;1271522;23;20269;-87
2023/01/01 00:11:31;;;;;;;16.15;9.82;;;;;;;14.04;74.14;100608.59;1265258;23;20136;-87
2023/01/01 00:12:03;;;;;;;14.63;8.57;;;;;;;14.15;72.69;100594.28;1270744;23;20275;-87
2023/01/01 00:12:35;;;;;;;23.77;9.68;;;;;;;14.08;73.14;100599.00;1271136;23;20400;-88
2023/01/01 00:13:07;;;;;;;18.17;9.50;;;;;;;14.06;73.79;100591.22;1271457;23;20323;-86
2023/01/01 00:13:40;;;;;;;23.35;9.02;;;;;;;14.06;73.20;100606.47;1258694;23;20262;-88
2023/01/01 00:14:11;;;;;;;16.17;8.93;;;;;;;14.05;73.40;100599.50;1258875;23;20266;-87
2023/01/01 00:14:43;;;;;;;12.38;9.20;;;;;;;14.08;72.82;100599.00;1267541;23;20265;-87
2023/01/01 00:15:15;;;;;;;10.65;8.88;;;;;;;14.07;73.03;100608.09;1264733;23;20281;-88
2023/01/01 00:15:46;;;;;;;12.60;8.52;;;;;;;14.07;72.91;100586.69;1267304;23;20681;-87
2023/01/01 00:16:19;;;;;;;15.73;9.70;;;;;;;14.08;72.88;100599.00;1265261;23;20309;-86
2023/01/01 00:16:53;;;;;;;15.73;9.00;;;;;;;14.05;73.12;100608.34;1258604;23;20301;-86
2023/01/01 00:17:25;;;;;;;17.25;10.00;;;;;;;14.08;72.90;100596.34;1259001;23;20793;-87
2023/01/01 00:17:57;;;;;;;15.93;8.73;;;;;;;14.08;73.39;100599.00;1265138;23;20359;-87
2023/01/01 00:18:28;;;;;;;19.52;9.70;;;;;;;14.09;73.56;100600.63;1258977;23;20647;-87
2023/01/01 00:19:00;;;;;;;21.05;10.10;;;;;;;14.05;73.37;100599.50;1258925;23;20266;-87
2023/01/01 00:19:31;;;;;;;17.63;10.07;;;;;;;14.03;74.13;100609.66;1261404;23;20277;-88
2023/01/01 00:20:03;;;;;;;18.77;9.23;;;;;;;14.05;74.57;100599.50;1254881;23;20621;-88
2023/01/01 00:20:34;;;;;;;19.13;9.23;;;;;;;14.03;74.24;100597.06;1261983;23;20291;-87
2023/01/01 00:21:12;;;;;;;20.35;10.77;;;;;;;13.93;75.04;100600.38;1262582;23;20277;-88
2023/01/01 00:21:45;;;;;;;17.60;8.95;;;;;;;13.93;74.64;100605.75;1259085;23;20356;-87
2023/01/01 00:22:17;;;;;;;11.23;9.65;;;;;;;13.90;74.69;100603.56;1255225;23;20258;-89
2023/01/01 00:23:08;;;;;;;12.88;8.75;;;;;;;13.88;75.24;100600.31;1258885;23;20324;-87
2023/01/01 00:23:40;;;;;;;17.05;9.75;;;;;;;13.88;75.19;100605.66;1270803;23;20649;-88
2023/01/01 00:24:12;;;;;;;15.75;9.15;;;;;;;13.88;75.42;100591.47;1264866;23;20266;-87
2023/01/01 00:24:43;;;;;;;14.90;9.60;;;;;;;13.89;74.88;100607.28;1258801;23;20738;-88
2023/01/01 00:25:16;;;;;;;14.90;9.70;;;;;;;13.92;74.16;100604.13;1265433;23;20273;-88
2023/01/01 00:25:48;;;;;;;15.38;9.38;;;;;;;13.96;74.55;100604.44;1259021;23;20278;-88
2023/01/01 00:26:19;;;;;;;18.67;9.48;;;;;;;13.93;74.43;100596.91;1258910;23;20597;-88
2023/01/01 00:26:51;;;;;;;14.43;9.35;;;;;;;13.99;73.83;100601.31;1265192;23;20273;-87
2023/01/01 00:27:23;;;;;;;22.23;9.38;;;;;;;14.02;73.52;100600.00;1264761;23;20663;-88
2023/01/01 00:27:54;;;;;;;14.70;9.82;;;;;;;14.02;74.49;100594.66;1265324;23;20355;-88
2023/01/01 00:28:26;;;;;;;19.45;9.77;;;;;;;14.03;74.15;100606.97;1271025;23;20264;-88
2023/01/01 00:28:58;;;;;;;15.43;8.90;;;;;;;14.00;74.10;100597.56;1272878;23;20388;-87
2023/01/01 00:29:31;;;;;;;14.45;9.27;;;;;;;14.02;73.81;100608.03;1265292;23;20277;-88
2023/01/01 00:30:03;;;;;;;12.45;10.40;;;;;;;14.03;74.13;100601.63;1258931;23;20740;-87
2023/01/01 00:30:38;;;;;;;19.38;10.15;;;;;;;14.05;73.63;100604.88;1255018;23;20267;-87
2023/01/01 00:31:13;;;;;;;12.95;8.73;;;;;;;14.01;73.93;100611.78;1255489;23;20633;-88
2023/01/01 00:31:45;;;;;;;15.88;9.55;;;;;;;13.98;74.04;100609.59;1255502;23;20257;-88
2023/01/01 00:32:17;;;;;;;13.70;10.15;;;;;;;14.00;74.01;100607.47;1258717;23;20293;-89
2023/01/01 00:32:53;;;;;;;17.88;9.48;;;;;;;13.99;74.53;100600.50;1265040;23;20270;-88
2023/01/01 00:33:26;;;;;;;17.63;10.60;;;;;;;13.96;74.58;100606.31;1259078;23;20274;-88
2023/01/01 00:33:58;;;;;;;18.55;10.55;;;;;;;14.02;74.54;100605.34;1258785;23;20345;-88
2023/01/01 00:34:29;;;;;;;17.83;9.63;;;;;;;14.01;74.39;100611.78;1265199;23;20380;-88
2023/01/01 00:35:01;;;;;;;22.30;10.55;;;;;;;13.99;73.83;100608.53;1271427;23;20362;-88
2023/01/01 00:35:33;;;;;;;18.23;10.77;;;;;;;14.01;74.02;100606.41;1271133;23;20265;-88
2023/01/01 00:36:09;;;;;;;12.32;9.30;;;;;;;14.02;73.58;100610.72;1270721;23;20276;-88
2023/01/01 00:36:41;;;;;;;22.77;13.23;;;;;;;14.00;74.51;100607.47;1265075;23;20404;-89
2023/01/01 00:37:14;;;;;;;18.45;9.80;;;;;;;13.97;75.13;100602.56;1267646;23;20699;-88
2023/01/01 00:37:45;;;;;;;14.73;8.70;;;;;;;13.98;74.39;100599.69;1265035;23;20364;-88
2023/01/01 00:38:17;;;;;;;14.40;8.43;;;;;;;14.08;73.46;100601.69;1264826;23;20614;-87
2023/01/01 00:38:48;;;;;;;18.48;9.65;;;;;;;14.03;74.34;100597.06;1271338;23;20419;-88
2023/01/01 00:39:20;;;;;;;17.77;10.00;;;;;;;14.03;74.83;100601.63;1259176;23;20335;-88
2023/01/01 00:39:51;;;;;;;12.13;8.75;;;;;;;14.04;73.48;100595.22;1258927;23;20270;-86
2023/01/01 00:40:23;;;;;;;16.08;9.65;;;;;;;14.09;73.34;100595.28;1255306;23;20267;-87
2023/01/01 00:40:55;;;;;;;17.52;11.18;;;;;;;14.08;73.51;100613.22;1258928;23;20285;-88
2023/01/01 00:41:26;;;;;;;13.85;9.15;;;;;;;14.19;72.91;100592.75;1265211;23;20282;-88
2023/01/01 00:41:58;;;;;;;21.27;11.15;;;;;;;14.11;73.54;100599.34;1267072;23;20318;-88
2023/01/01 00:42:29;;;;;;;15.77;9.65;;;;;;;14.04;74.10;100604.06;1267620;23;20254;-88
2023/01/01 00:43:01;;;;;;;16.92;8.82;;;;;;;14.10;73.83;100607.63;1265996;23;20268;-88
2023/01/01 00:43:33;;;;;;;18.52;9.13;;;;;;;14.13;73.45;100601.75;1265135;23;20280;-86
2023/01/01 00:44:04;;;;;;;15.00;9.35;;;;;;;14.20;73.57;100607.75;1264727;23;20379;-88
2023/01/01 00:44:36;;;;;;;17.60;8.85;;;;;;;14.21;73.09;100604.00;1277423;23;20268;-87
2023/01/01 00:45:08;;;;;;;12.68;8.25;;;;;;;14.23;73.06;100607.25;1259083;23;20278;-88
2023/01/01 00:45:39;;;;;;;17.52;9.55;;;;;;;14.23;72.68;100615.28;1264372;23;20281;-88
2023/01/01 00:46:11;;;;;;;13.77;8.13;;;;;;;14.21;72.79;100625.44;1258858;23;20274;-88
2023/01/01 00:46:43;;;;;;;11.43;8.15;;;;;;;14.16;73.93;100614.66;1271127;23;20277;-88
2023/01/01 00:47:14;;;;;;;11.25;8.75;;;;;;;14.18;73.82;100616.03;1273129;23;20275;-88
2023/01/01 00:47:46;;;;;;;12.63;8.13;;;;;;;14.17;73.91;100619.78;1270920;23;20775;-88
2023/01/01 00:48:19;;;;;;;12.35;8.13;;;;;;;14.12;74.48;100621.56;1264511;23;20309;-88
2023/01/01 00:48:51;;;;;;;12.40;8.80;;;;;;;14.20;73.96;100621.97;1264775;23;20293;-87
2023/01/01 00:49:23;;;;;;;24.67;9.07;;;;;;;14.11;74.42;100630.66;1267362;23;20261;-88
2023/01/01 00:49:54;;;;;;;18.63;9.65;;;;;;;14.09;74.06;100622.06;1270847;23;20304;-87
2023/01/01 00:50:26;;;;;;;19.83;9.85;;;;;;;14.07;75.00;100618.81;1258998;23;20525;-88
2023/01/01 00:50:58;;;;;;;20.08;8.45;;;;;;;14.05;74.80;100634.31;1258983;23;20309;-88
2023/01/01 00:51:29;;;;;;;17.55;9.18;;;;;;;14.01;75.90;100631.31;1271023;23;20273;-88
2023/01/01 00:52:07;;;;;;;13.70;8.90;;;;;;;14.00;75.87;100628.91;1270923;23;20264;-88
2023/01/01 00:52:40;;;;;;;14.52;7.70;;;;;;;13.92;76.44;100638.13;1265000;23;20273;-88
2023/01/01 00:53:12;;;;;;;13.48;7.82;;;;;;;13.96;76.20;100622.38;1264427;23;20261;-88
2023/01/01 00:53:44;;;;;;;23.05;7.97;;;;;;;14.01;75.71;100635.88;1258112;23;20365;-87
2023/01/01 00:54:16;;;;;;;16.20;9.32;;;;;;;13.98;76.02;100628.31;1264709;23;20269;-87
2023/01/01 00:54:47;;;;;;;17.88;8.07;;;;;;;13.95;76.80;100628.78;1273366;23;20293;-87
2023/01/01 00:55:19;;;;;;;14.27;8.68;;;;;;;13.92;77.09;100638.94;1273348;23;20264;-89
2023/01/01 00:55:51;;;;;;;15.55;7.82;;;;;;;14.02;76.18;100632.94;1273500;23;20257;-88
2023/01/01 00:56:23;;;;;;;14.40;8.50;;;;;;;13.97;77.05;100634.72;1273206;23;20265;-89
2023/01/01 00:56:56;;;;;;;12.75;7.05;;;;;;;13.97;76.54;100635.56;1268434;23;20340;-88
2023/01/01 00:57:27;;;;;;;18.73;8.02;;;;;;;13.84;78.56;100644.69;1265248;23;20332;-87
2023/01/01 00:57:59;;;;;;;10.50;7.97;;;;;;;13.84;78.51;100636.66;1258564;23;20286;-88
2023/01/01 00:58:31;;;;;;;19.02;8.10;;;;;;;13.86;78.11;100634.56;1258704;23;20331;-88
2023/01/01 00:59:03;;;;;;;13.20;7.15;;;;;;;13.82;78.71;100638.78;1258873;23;20294;-88
2023/01/01 00:59:34;;;;;;;16.40;6.78;;;;;;;13.79;79.48;100643.81;1252458;23;20413;-88
2023/01/01 01:00:08;;;;;;;9.40;6.28;;;;;;;13.78;79.35;100644.84;1258070;23;20505;-87
2023/01/01 01:00:39;;;;;;;12.60;6.93;;;;;;;13.78;79.76;100637.63;1258626;23;20270;-88
2023/01/01 01:01:11;;;;;;;13.40;7.40;;;;;;;13.82;78.74;100629.94;1260686;23;20710;-88
2023/01/01 01:01:43;;;;;;;14.70;6.60;;;;;;;13.82;78.65;100637.97;1270647;23;20265;-88
2023/01/01 01:02:15;;;;;;;15.77;6.90;;;;;;;13.77;79.29;100633.34;1270664;23;20273;-89
2023/01/01 01:02:47;;;;;;;11.98;6.75;;;;;;;13.78;80.35;100629.59;1267004;23;20590;-87
2023/01/01 01:03:27;;;;;;;10.20;6.60;;;;;;;13.74;80.21;100623.13;1272504;23;20257;-88
2023/01/01 01:04:01;;;;;;;16.92;7.40;;;;;;;13.70;81.57;100630.00;1270400;23;20736;-88
2023/01/01 01:04:33;;;;;;;14.52;7.35;;;;;;;13.66;81.29;100628.84;1270616;23;20017;-89
2023/01/01 01:05:05;;;;;;;16.17;8.70;;;;;;;13.61;82.11;100626.09;1264613;23;20261;-88
2023/01/01 01:05:37;;;;;;;15.48;6.97;;;;;;;13.57;81.94;100625.75;1258459;23;20266;-87
2023/01/01 01:06:11;;;;;;;11.85;8.75;;;;;;;13.54;81.75;100625.44;1258353;23;20382;-88
2023/01/01 01:06:43;;;;;;;16.90;7.97;;;;;;;13.46;83.32;100631.19;1258149;23;20278;-88
2023/01/01 01:07:14;;;;;;;13.70;6.80;;;;;;;13.38;83.81;100636.91;1260838;23;20651;-87
2023/01/01 01:07:46;;;;;;;13.15;7.22;;;;;;;13.35;84.42;100627.50;1258397;23;20357;-88
2023/01/01 01:08:17;;;;;;;12.55;7.82;;;;;;;13.39;84.67;100633.19;1258662;23;20289;-88
2023/01/01 01:08:50;;;;;;;15.75;7.82;;;;;;;13.38;83.68;100620.84;1258416;23;20769;-87
2023/01/01 01:09:21;;;;;;;16.17;6.78;;;;;;;13.38;84.16;100631.56;1270531;23;20538;-88
2023/01/01 01:09:53;;;;;;;12.13;6.90;;;;;;;13.32;84.05;100635.19;1264435;23;20641;-88
2023/01/01 01:10:25;;;;;;;11.13;7.07;;;;;;;13.34;84.34;100625.88;1271010;23;20313;-88
2023/01/01 01:11:15;;;;;;;8.75;5.45;;;;;;;13.47;82.29;100624.78;1270355;23;20280;-87
2023/01/01 01:11:46;;;;;;;20.92;6.22;;;;;;;13.48;82.64;100639.78;1264846;23;20265;-87
2023/01/01 01:12:18;;;;;;;13.88;6.50;;;;;;;13.52;82.21;100635.56;1264481;23;20253;-87
2023/01/01 01:12:49;;;;;;;13.85;5.82;;;;;;;13.47;82.28;100632.81;1274776;23;20357;-88
2023/01/01 01:13:21;;;;;;;11.55;7.57;;;;;;;13.53;82.23;100634.53;1270857;23;20427;-88
2023/01/01 01:13:54;;;;;;;11.50;5.53;;;;;;;13.52;82.11;100636.38;1270286;23;20347;-88
2023/01/01 01:14:26;;;;;;;10.65;5.15;;;;;;;13.57;80.98;100635.66;1264266;23;20727;-87
2023/01/01 01:14:57;;;;;;;14.40;5.78;;;;;;;13.58;81.17;100632.75;1270674;23;20804;-88
2023/01/01 01:15:29;;;;;;;13.18;5.82;;;;;;;13.54;81.38;100641.50;1268158;23;20745;-88
2023/01/01 01:16:01;;;;;;;11.85;5.22;;;;;;;13.56;81.41;100634.84;1261039;23;20341;-87
2023/01/01 01:16:34;;;;;;;14.18;6.13;;;;;;;13.57;81.04;100631.13;1267820;23;20878;-88
2023/01/01 01:17:05;;;;;;;15.15;5.47;;;;;;;13.65;80.06;100632.59;1267424;23;20263;-88
2023/01/01 01:17:37;;;;;;;7.95;4.82;;;;;;;13.66;80.15;100639.56;1264838;23;20285;-86
2023/01/01 01:18:09;;;;;;;10.73;4.63;;;;;;;13.69;79.90;100623.00;1271210;23;20272;-88
2023/01/01 01:18:40;;;;;;;11.35;4.90;;;;;;;13.72;79.40;100633.25;1271063;23;20333;-88
2023/01/01 01:19:17;;;;;;;9.77;4.75;;;;;;;13.79;79.21;100620.53;1270669;23;20277;-88
2023/01/01 01:19:50;;;;;;;15.65;4.32;;;;;;;13.75;79.19;100640.81;1264989;23;20610;-88
2023/01/01 01:20:22;;;;;;;8.40;5.07;;;;;;;13.80;79.11;100629.38;1279638;23;20268;-88
2023/01/01 01:20:53;;;;;;;13.43;5.93;;;;;;;13.74;79.68;100641.88;1270908;23;20301;-87
2023/01/01 01:21:28;;;;;;;16.67;6.57;;;;;;;13.74;79.81;100643.72;1264866;23;20276;-88
2023/01/01 01:21:59;;;;;;;13.30;6.10;;;;;;;13.75;80.37;100638.13;1271174;23;20404;-88
2023/01/01 01:22:36;;;;;;;9.48;3.75;;;;;;;13.74;80.70;100635.69;1271307;23;20269;-87
2023/01/01 01:23:07;;;;;;;10.18;3.75;;;;;;;13.66;80.35;100650.25;1258669;23;20274;-87
2023/01/01 01:23:39;;;;;;;14.32;4.43;;;;;;;13.67;81.00;100646.53;1264751;23;20352;-88
2023/01/01 01:24:10;;;;;;;7.93;3.95;;;;;;;13.68;81.43;100650.84;1265105;23;20387;-88
2023/01/01 01:24:42;;;;;;;12.52;5.07;;;;;;;13.65;81.70;100637.94;1264855;23;20281;-88
2023/01/01 01:25:14;;;;;;;9.18;4.43;;;;;;;13.64;81.82;100648.88;1267197;23;20253;-88
2023/01/01 01:25:46;;;;;;;9.95;3.78;;;;;;;13.65;81.21;100621.88;1265181;23;20274;-87
2023/01/01 01:26:26;;;;;;;12.85;4.32;;;;;;;13.58;81.83;100648.81;1271059;23;20280;-88
2023/01/01 01:26:58;;;;;;;13.68;4.97;;;;;;;13.63;81.32;100628.53;1271472;23;20265;-88
2023/01/01 01:27:29;;;;;;;13.20;6.32;;;;;;;13.61;81.48;100629.56;1270897;23;20017;-88
2023/01/01 01:28:01;;;;;;;14.88;3.83;;;;;;;13.60;81.13;100640.53;1270974;23;20324;-89
2023/01/01 01:28:33;;;;;;;11.93;3.17;;;;;;;13.69;81.24;100638.25;1259254;23;20789;-88
2023/01/01 01:29:04;;;;;;;5.55;3.17;;;;;;;13.60;81.58;100635.16;1258606;23;20324;-87
2023/01/01 01:29:36;;;;;;;10.95;3.88;;;;;;;13.64;81.36;100641.66;1264997;23;20364;-87
2023/01/01 01:30:08;;;;;;;9.00;3.63;;;;;;;13.62;80.71;100654.47;1267209;23;20757;-87
2023/01/01 01:30:40;;;;;;;11.00;5.07;;;;;;;13.62;80.81;100627.72;1273265;23;20256;-87
2023/01/01 01:31:12;;;;;;;6.53;2.78;;;;;;;13.68;80.47;100639.31;1264553;23;20298;-88
2023/01/01 01:31:43;;;;;;;12.93;3.45;;;;;;;13.73;79.42;100634.88;1258994;23;20314;-88
2023/01/01 01:32:15;;;;;;;5.20;3.00;;;;;;;13.74;79.26;100639.19;1265048;23;20398;-88
2023/01/01 01:32:46;;;;;;;12.20;3.47;;;;;;;13.72;79.66;100637.81;1270285;23;20611;-88
2023/01/01 01:33:18;;;;;;;6.80;3.25;;;;;;;13.70;79.61;100651.44;1265242;23;20269;-87
2023/01/01 01:33:50;;;;;;;7.82;3.70;;;;;;;13.79;79.09;100643.81;1260887;23;20314;-88
2023/01/01 01:34:21;;;;;;;16.23;3.63;;;;;;;13.79;78.97;100649.97;1266783;23;20261;-87
2023/01/01 01:34:58;;;;;;;10.02;3.40;;;;;;;13.80;78.82;100651.59;1271153;23;20373;-88
2023/01/01 01:35:30;;;;;;;5.15;3.20;;;;;;;13.77;79.39;100645.91;1259299;23;20580;-87
2023/01/01 01:36:02;;;;;;;12.20;3.05;;;;;;;13.89;78.01;100644.78;1270917;23;20265;-87
2023/01/01 01:36:34;;;;;;;10.63;3.67;;;;;;;13.86;77.83;100644.44;1270949;23;20635;-88
2023/01/01 01:37:05;;;;;;;8.18;3.22;;;;;;;13.82;78.36;100649.47;1265201;23;20861;-88
2023/01/01 01:37:37;;;;;;;7.63;3.53;;;;;;;13.85;78.19;100642.84;1264946;23;20273;-88
2023/01/01 01:38:09;;;;;;;6.88;2.67;;;;;;;13.89;78.00;100623.34;1267056;23;20381;-87
2023/01/01 01:38:41;;;;;;;10.70;3.65;;;;;;;13.89;77.88;100639.41;1265714;23;20285;-87
2023/01/01 01:39:13;;;;;;;6.75;3.75;;;;;;;13.90;77.83;100640.22;1261259;23;20262;-88
2023/01/01 01:39:44;;;;;;;10.60;2.90;;;;;;;13.85;78.18;100635.59;1259318;23;20403;-88
2023/01/01 01:40:24;;;;;;;4.88;2.20;;;;;;;13.74;79.41;100657.91;1259341;23;20296;-87
2023/01/01 01:40:56;;;;;;;4.43;2.97;;;;;;;13.80;78.18;100650.78;1265401;23;20754;-87
2023/01/01 01:41:28;;;;;;;9.95;3.28;;;;;;;13.79;78.00;100649.97;1265325;23;20269;-88
2023/01/01 01:42:02;;;;;;;10.65;3.33;;;;;;;13.85;77.97;100648.19;1277484;23;20268;-88
2023/01/01 01:42:33;;;;;;;7.40;2.80;;;;;;;13.78;78.68;100644.84;1277599;23;20645;-88
2023/01/01 01:43:16;;;;;;;7.22;2.78;;;;;;;13.74;78.83;100641.06;1265715;23;20270;-88
2023/01/01 01:44:00;;;;;;;9.25;2.58;;;;;;;13.75;78.53;100643.47;1259114;23;20721;-88
2023/01/01 01:44:56;;;;;;;7.90;2.55;;;;;;;13.78;78.20;100661.75;1258634;23;20357;-87
2023/01/01 01:45:27;;;;;;;7.97;3.47;;;;;;;13.71;79.09;100655.72;1264765;23;20258;-87
2023/01/01 01:46:05;;;;;;;7.22;2.92;;;;;;;13.73;78.83;100650.13;1271200;23;20377;-87
2023/01/01 01:46:40;;;;;;;6.57;2.38;;;;;;;13.77;78.24;100662.78;1273148;23;20260;-87
2023/01/01 01:47:24;;;;;;;6.28;2.55;;;;;;;13.75;78.50;100658.72;1265027;23;20261;-88
2023/01/01 01:47:57;;;;;;;14.65;3.10;;;;;;;13.88;77.05;100650.38;1264828;23;20274;-88
2023/01/01 01:48:38;;;;;;;9.30;2.80;;;;;;;13.78;78.29;100672.44;1267708;23;20768;-88
2023/01/01 01:49:30;;;;;;;4.63;2.45;;;;;;;13.81;77.83;100657.75;1261417;23;20738;-87
2023/01/01 01:50:13;;;;;;;11.23;2.20;;;;;;;13.74;78.69;100668.63;1267503;23;20484;-88
2023/01/01 01:50:46;;;;;;;4.90;2.40;;;;;;;13.89;76.67;100655.50;1266713;23;20309;-87
2023/01/01 01:51:29;;;;;;;9.05;3.13;;;;;;;13.86;76.77;100661.31;1271505;23;20279;-88
2023/01/01 01:52:01;;;;;;;7.07;2.92;;;;;;;13.87;76.32;100654.91;1265483;23;20273;-87
2023/01/01 01:52:35;;;;;;;3.97;2.30;;;;;;;13.85;77.14;100659.72;1267624;23;20258;-88
2023/01/01 01:53:26;;;;;;;9.07;3.17;;;;;;;13.91;76.48;100666.75;1268459;23;20338;-88
2023/01/01 01:54:01;;;;;;;11.50;2.47;;;;;;;14.01;75.41;100657.28;1283815;23;20259;-87
2023/01/01 01:54:33;;;;;;;5.53;1.92;;;;;;;13.92;75.79;100675.59;1271280;23;20052;-87
2023/01/01 01:55:07;;;;;;;7.18;2.28;;;;;;;13.91;76.19;100674.81;1265095;23;20280;-88
2023/01/01 01:55:43;;;;;;;7.10;4.00;;;;;;;13.87;76.55;100695.09;1259139;23;20277;-87
2023/01/01 01:56:19;;;;;;;5.43;2.42;;;;;;;13.92;76.45;100655.00;1262996;23;20286;-88
2023/01/01 01:56:57;;;;;;;11.10;1.92;;;;;;;13.83;77.72;100685.91;1265073;23;20714;-87
2023/01/01 01:57:29;;;;;;;4.68;2.47;;;;;;;13.86;76.55;100655.97;1259218;23;20818;-87
2023/01/01 01:58:02;;;;;;;6.70;1.80;;;;;;;13.98;75.55;100663.13;1270880;23;20273;-87
2023/01/01 01:58:34;;;;;;;6.38;1.90;;;;;;;13.94;75.90;100657.44;1271741;23;20335;-87
2023/01/01 01:59:05;;;;;;;6.55;2.08;;;;;;;13.95;76.31;100674.31;1267485;23;20253;-88
2023/01/01 01:59:41;;;;;;;13.18;2.28;;;;;;;14.02;75.39;100669.63;1265118;23;20277;-87
2023/01/01 02:00:14;;;;;;;6.28;2.65;;;;;;;13.92;76.35;100670.25;1265144;23;20332;-87
2023/01/01 02:00:46;;;;;;;6.18;2.05;;;;;;;13.97;76.08;100669.53;1261424;23;20262;-87
2023/01/01 02:01:17;;;;;;;3.50;1.73;;;;;;;13.85;77.01;100689.16;1259142;23;20277;-87
2023/01/01 02:01:49;;;;;;;5.90;2.00;;;;;;;13.86;77.15;100677.41;1271378;23;20272;-87
2023/01/01 02:02:34;;;;;;;13.98;2.15;;;;;;;13.82;77.59;100665.56;1265542;23;20273;-87
2023/01/01 02:03:07;;;;;;;3.92;1.95;;;;;;;13.85;77.46;100670.41;1265155;23;20656;-86
2023/01/01 02:03:56;;;;;;;2.85;1.85;;;;;;;13.80;77.48;100673.00;1273551;23;20284;-87
2023/01/01 02:04:28;;;;;;;7.03;1.90;;;;;;;13.68;78.87;100666.88;1265158;23;20261;-87
2023/01/01 02:05:00;;;;;;;6.32;1.67;;;;;;;13.68;78.60;100664.22;1258907;23;20277;-88
2023/01/01 02:05:33;;;;;;;13.10;3.00;;;;;;;13.63;79.12;100661.44;1265720;23;20266;-87
2023/01/01 02:06:05;;;;;;;5.55;2.08;;;;;;;13.69;78.65;100663.16;1265277;23;20317;-87
2023/01/01 02:06:37;;;;;;;7.30;1.80;;;;;;;13.57;79.80;100651.72;1258834;23;20513;-88
2023/01/01 02:07:10;;;;;;;4.55;2.60;;;;;;;13.58;79.41;100669.41;1261575;23;20619;-87
2023/01/01 02:07:41;;;;;;;5.57;2.00;;;;;;;13.61;79.60;100671.59;1265588;23;20293;-87
2023/01/01 02:08:14;;;;;;;5.97;1.83;;;;;;;13.53;80.24;100666.63;1265389;23;20699;-87
2023/01/01 02:08:48;;;;;;;6.25;1.85;;;;;;;13.49;80.33;100665.50;1265095;23;20840;-88
2023/01/01 02:09:20;;;;;;;2.22;1.63;;;;;;;13.50;79.70;100667.13;1259205;23;20452;-88
2023/01/01 02:09:52;;;;;;;8.68;2.03;;;;;;;13.55;79.78;100677.91;1259546;23;20584;-87
2023/01/01 02:10:25;;;;;;;2.53;1.80;;;;;;;13.59;78.80;100684.41;1271117;23;20343;-87
2023/01/01 02:10:57;;;;;;;13.55;2.60;;;;;;;13.59;78.86;100681.72;1265343;23;20807;-86
2023/01/01 02:11:28;;;;;;;9.23;1.70;;;;;;;13.66;78.10;100677.03;1261473;23;20309;-87
2023/01/01 02:12:00;;;;;;;3.03;1.40;;;;;;;13.60;78.89;100675.31;1264944;23;20269;-88
2023/01/01 02:12:32;;;;;;;7.50;2.25;;;;;;;13.52;79.65;100681.06;1277545;23;20363;-88
2023/01/01 02:13:03;;;;;;;7.55;1.67;;;;;;;13.52;79.49;100681.88;1271345;23;20261;-89
2023/01/01 02:13:35;;;;;;;10.20;2.63;;;;;;;13.53;79.14;100683.50;1265301;23;20355;-87
2023/01/01 02:14:07;;;;;;;5.50;1.65;;;;;;;13.64;78.62;100678.31;1265671;23;20796;-88
2023/01/01 02:14:38;;;;;;;8.00;1.75;;;;;;;13.58;78.60;100677.44;1265288;23;20632;-87
2023/01/01 02:15:10;;;;;;;4.00;2.33;;;;;;;13.64;77.93;100676.47;1267405;23;20325;-88
2023/01/01 02:15:54;;;;;;;5.93;1.63;;;;;;;13.67;78.01;100684.00;1271418;23;20276;-88
2023/01/01 02:16:48;;;;;;;13.15;2.42;;;;;;;13.61;78.37;100685.78;1265275;23;20281;-88
2023/01/01 02:17:46;;;;;;;8.75;2.35;;;;;;;13.62;78.03;100686.59;1273381;23;21513;-87
2023/01/01 02:18:24;;;;;;;6.00;2.28;;;;;;;13.67;77.58;100688.53;1262533;23;20299;-88
2023/01/01 02:19:03;;;;;;;8.27;2.00;;;;;;;13.67;77.65;100694.72;1261089;23;20273;-87
2023/01/01 02:20:07;;;;;;;4.60;2.25;;;;;;;13.70;76.78;100694.25;1265073;23;20297;-88
2023/01/01 02:20:45;;;;;;;4.95;1.83;;;;;;;13.71;77.03;100690.53;1271661;23;20253;-88
2023/01/01 02:21:23;;;;;;;6.00;1.48;;;;;;;13.75;77.19;100686.31;1264598;23;20280;-86
2023/01/01 02:22:17;;;;;;;6.88;2.78;;;;;;;13.64;77.42;100703.22;1264892;23;20848;-87
2023/01/01 02:23:27;;;;;;;3.75;1.45;;;;;;;13.79;76.20;100687.44;1265287;23;20277;-87
2023/01/01 02:24:05;;;;;;;4.03;1.95;;;;;;;13.78;76.59;100688.50;1277638;23;20772;-87
2023/01/01 02:24:51;;;;;;;5.03;2.40;;;;;;;13.78;77.64;100685.81;1272157;23;20262;-88
2023/01/01 02:25:35;;;;;;;7.43;2.45;;;;;;;13.71;77.06;100695.88;1265414;23;20281;-88
2023/01/01 02:26:37;;;;;;;7.00;2.22;;;;;;;13.73;77.13;100691.09;1259434;23;20829;-88
2023/01/01 02:27:17;;;;;;;4.70;2.05;;;;;;;13.79;76.08;100692.81;1274536;23;20284;-88
2023/01/01 02:28:11;;;;;;;7.47;1.70;;;;;;;13.83;76.02;100687.78;1269494;23;20265;-87
2023/01/01 02:29:04;;;;;;;7.78;2.20;;;;;;;13.90;75.21;100689.25;1265385;23;20274;-87
2023/01/01 02:29:42;;;;;;;6.97;1.65;;;;;;;13.81;75.72;100696.06;1264458;23;20357;-88
2023/01/01 02:30:14;;;;;;;6.53;2.55;;;;;;;13.80;75.72;100694.44;1261562;23;20257;-88
2023/01/01 02:30:46;;;;;;;4.38;1.92;;;;;;;13.88;75.15;100685.19;1265178;23;20804;-87
2023/01/01 02:31:41;;;;;;;8.60;2.08;;;;;;;13.86;75.43;100680.06;1264079;23;20389;-88
2023/01/01 02:32:26;;;;;;;9.35;1.63;;;;;;;13.86;74.79;100695.31;1259532;23;20288;-88
2023/01/01 02:33:02;;;;;;;12.30;3.85;;;;;;;13.85;75.27;100702.53;1265212;23;20274;-88
2023/01/01 02:33:34;;;;;;;7.55;2.08;;;;;;;13.85;75.65;100694.50;1253296;23;20267;-88
2023/01/01 02:34:08;;;;;;;5.95;1.83;;;;;;;13.85;75.92;100723.16;1261481;23;20568;-88
2023/01/01 02:34:46;;;;;;;4.78;1.73;;;;;;;13.80;75.73;100698.97;1265055;23;20278;-87
2023/01/01 02:35:34;;;;;;;8.95;1.75;;;;;;;13.79;75.94;100703.50;1258733;23;20266;-87
2023/01/01 02:36:07;;;;;;;7.45;2.00;;;;;;;13.77;75.72;100702.94;1261673;23;20262;-88
2023/01/01 02:36:43;;;;;;;6.55;1.67;;;;;;;13.84;75.38;100710.81;1273629;23;20339;-87
2023/01/01 02:37:17;;;;;;;4.55;1.98;;;;;;;13.86;75.29;100714.88;1259043;23;20266;-87
2023/01/01 02:37:50;;;;;;;7.85;2.08;;;;;;;13.95;74.63;100701.09;1271332;23;20264;-87
2023/01/01 02:38:28;;;;;;;5.07;1.75;;;;;;;13.87;75.36;100692.41;1259141;23;20274;-88
2023/01/01 02:39:02;;;;;;;11.02;1.95;;;;;;;13.86;75.74;100706.03;1261471;23;20636;-87
2023/01/01 02:39:36;;;;;;;7.95;1.58;;;;;;;13.87;75.44;100705.78;1265455;23;20708;-87
2023/01/01 02:40:08;;;;;;;9.10;2.03;;;;;;;13.81;75.40;100706.75;1255556;23;20719;-88